sensor_id;sensor_type;location;lat;lon;timestamp;temperature;humidity
290;DHT22;13193;48.874;9.086;2022-07-01T00:00:03;15.40;1.00
290;DHT22;13193;48.874;9.086;2022-07-01T00:02:29;15.50;1.00
290;DHT22;13193;48.874;9.086;2022-07-01T00:04:54;15.50;1.00
290;DHT22;13193;48.874;9.086;2022-07-01T00:07:21;15.50;1.00
290;DHT22;13193;48.874;9.086;2022-07-01T00:09:47;15.40;1.00
290;DHT22;13193;48.874;9.086;2022-07-01T00:12:13;15.40;1.00
290;DHT22;13193;48.874;9.086;2022-07-01T00:14:38;15.40;1.00
290;DHT22;13193;48.874;9.086;2022-07-01T00:17:04;15.40;1.00
290;DHT22;13193;48.874;9.086;2022-07-01T00:19:30;15.40;1.00
290;DHT22;13193;48.874;9.086;2022-07-01T00:21:55;15.40;1.00
290;DHT22;13193;48.874;9.086;2022-07-01T00:24:21;15.40;1.00
290;DHT22;13193;48.874;9.086;2022-07-01T00:26:46;15.40;1.00
290;DHT22;13193;48.874;9.086;2022-07-01T00:29:12;15.40;1.00
290;DHT22;13193;48.874;9.086;2022-07-01T00:31:38;15.30;1.00
290;DHT22;13193;48.874;9.086;2022-07-01T00:34:03;15.30;1.00
290;DHT22;13193;48.874;9.086;2022-07-01T00:36:29;15.40;1.00
290;DHT22;13193;48.874;9.086;2022-07-01T00:38:55;15.30;1.00
290;DHT22;13193;48.874;9.086;2022-07-01T00:41:20;15.30;1.00
290;DHT22;13193;48.874;9.086;2022-07-01T00:43:47;15.40;1.00
290;DHT22;13193;48.874;9.086;2022-07-01T00:46:13;15.40;1.00
290;DHT22;13193;48.874;9.086;2022-07-01T00:48:39;15.40;1.00
290;DHT22;13193;48.874;9.086;2022-07-01T00:51:04;15.40;1.00
290;DHT22;13193;48.874;9.086;2022-07-01T00:53:31;15.40;1.00
290;DHT22;13193;48.874;9.086;2022-07-01T00:55:57;15.40;1.00
290;DHT22;13193;48.874;9.086;2022-07-01T00:58:26;15.40;1.00
290;DHT22;13193;48.874;9.086;2022-07-01T01:00:52;15.40;1.00
290;DHT22;13193;48.874;9.086;2022-07-01T01:03:17;15.30;1.00
290;DHT22;13193;48.874;9.086;2022-07-01T01:05:43;15.40;1.00
290;DHT22;13193;48.874;9.086;2022-07-01T01:08:09;15.30;1.00
290;DHT22;13193;48.874;9.086;2022-07-01T01:10:37;15.30;1.00
290;DHT22;13193;48.874;9.086;2022-07-01T01:13:04;15.30;1.00
290;DHT22;13193;48.874;9.086;2022-07-01T01:15:30;15.30;1.00
290;DHT22;13193;48.874;9.086;2022-07-01T01:17:56;15.30;1.00
290;DHT22;13193;48.874;9.086;2022-07-01T01:20:22;15.30;1.00
290;DHT22;13193;48.874;9.086;2022-07-01T01:22:48;15.30;1.00
290;DHT22;13193;48.874;9.086;2022-07-01T01:25:15;15.30;1.00
290;DHT22;13193;48.874;9.086;2022-07-01T01:27:40;15.30;1.00
290;DHT22;13193;48.874;9.086;2022-07-01T01:30:09;15.30;1.00
290;DHT22;13193;48.874;9.086;2022-07-01T01:32:35;15.20;1.00
290;DHT22;13193;48.874;9.086;2022-07-01T01:35:02;15.20;1.00
290;DHT22;13193;48.874;9.086;2022-07-01T01:37:27;15.30;1.00
290;DHT22;13193;48.874;9.086;2022-07-01T01:39:53;15.20;1.00
290;DHT22;13193;48.874;9.086;2022-07-01T01:42:19;15.20;1.00
290;DHT22;13193;48.874;9.086;2022-07-01T01:44:45;15.20;1.00
290;DHT22;13193;48.874;9.086;2022-07-01T01:47:11;15.20;1.00
290;DHT22;13193;48.874;9.086;2022-07-01T01:49:37;15.20;1.00
290;DHT22;13193;48.874;9.086;2022-07-01T01:52:02;15.20;1.00
290;DHT22;13193;48.874;9.086;2022-07-01T01:54:28;15.20;1.00
290;DHT22;13193;48.874;9.086;2022-07-01T01:56:54;15.30;1.00
290;DHT22;13193;48.874;9.086;2022-07-01T01:59:19;15.20;1.00
290;DHT22;13193;48.874;9.086;2022-07-01T02:01:45;15.30;1.00
290;DHT22;13193;48.874;9.086;2022-07-01T02:04:11;15.30;1.00
290;DHT22;13193;48.874;9.086;2022-07-01T02:06:37;15.30;1.00
290;DHT22;13193;48.874;9.086;2022-07-01T02:09:03;15.30;1.00
290;DHT22;13193;48.874;9.086;2022-07-01T02:11:30;15.20;1.00
290;DHT22;13193;48.874;9.086;2022-07-01T02:13:55;15.30;1.00
290;DHT22;13193;48.874;9.086;2022-07-01T02:16:21;15.20;1.00
290;DHT22;13193;48.874;9.086;2022-07-01T02:18:47;15.20;1.00
290;DHT22;13193;48.874;9.086;2022-07-01T02:21:14;15.20;1.00
290;DHT22;13193;48.874;9.086;2022-07-01T02:23:39;15.20;1.00
290;DHT22;13193;48.874;9.086;2022-07-01T02:26:05;15.10;1.00
290;DHT22;13193;48.874;9.086;2022-07-01T02:28:31;15.10;1.00
290;DHT22;13193;48.874;9.086;2022-07-01T02:30:57;15.10;1.00
290;DHT22;13193;48.874;9.086;2022-07-01T02:33:22;15.00;1.00
290;DHT22;13193;48.874;9.086;2022-07-01T02:35:48;15.00;1.00
290;DHT22;13193;48.874;9.086;2022-07-01T02:38:14;15.00;1.00
290;DHT22;13193;48.874;9.086;2022-07-01T02:40:39;14.90;1.00
290;DHT22;13193;48.874;9.086;2022-07-01T02:43:08;14.80;1.00
290;DHT22;13193;48.874;9.086;2022-07-01T02:45:33;14.80;1.00
290;DHT22;13193;48.874;9.086;2022-07-01T02:47:59;14.80;1.00
290;DHT22;13193;48.874;9.086;2022-07-01T02:50:27;14.80;1.00
290;DHT22;13193;48.874;9.086;2022-07-01T02:52:52;14.80;1.00
290;DHT22;13193;48.874;9.086;2022-07-01T02:55:18;14.80;1.00
290;DHT22;13193;48.874;9.086;2022-07-01T02:57:44;14.70;1.00
290;DHT22;13193;48.874;9.086;2022-07-01T03:00:12;14.70;1.00
290;DHT22;13193;48.874;9.086;2022-07-01T03:02:39;14.70;1.00
290;DHT22;13193;48.874;9.086;2022-07-01T03:05:05;14.70;1.00
290;DHT22;13193;48.874;9.086;2022-07-01T03:07:31;14.70;1.00
290;DHT22;13193;48.874;9.086;2022-07-01T03:09:57;14.70;1.00
290;DHT22;13193;48.874;9.086;2022-07-01T03:12:23;14.70;1.00
290;DHT22;13193;48.874;9.086;2022-07-01T03:14:54;14.70;1.00
290;DHT22;13193;48.874;9.086;2022-07-01T03:17:20;14.70;1.00
290;DHT22;13193;48.874;9.086;2022-07-01T03:19:47;14.70;1.00
290;DHT22;13193;48.874;9.086;2022-07-01T03:22:13;14.70;1.00
290;DHT22;13193;48.874;9.086;2022-07-01T03:24:38;14.70;1.00
290;DHT22;13193;48.874;9.086;2022-07-01T03:27:04;14.70;1.00
290;DHT22;13193;48.874;9.086;2022-07-01T03:29:30;14.70;1.00
290;DHT22;13193;48.874;9.086;2022-07-01T03:31:55;14.70;1.00
290;DHT22;13193;48.874;9.086;2022-07-01T03:34:21;14.70;1.00
290;DHT22;13193;48.874;9.086;2022-07-01T03:36:47;14.70;1.00
290;DHT22;13193;48.874;9.086;2022-07-01T03:39:13;14.70;1.00
290;DHT22;13193;48.874;9.086;2022-07-01T03:41:38;14.70;1.00
290;DHT22;13193;48.874;9.086;2022-07-01T03:44:04;14.70;1.00
290;DHT22;13193;48.874;9.086;2022-07-01T03:46:31;14.70;1.00
290;DHT22;13193;48.874;9.086;2022-07-01T03:49:00;14.80;1.00
290;DHT22;13193;48.874;9.086;2022-07-01T03:51:26;14.80;1.00
290;DHT22;13193;48.874;9.086;2022-07-01T03:53:52;14.90;1.00
290;DHT22;13193;48.874;9.086;2022-07-01T03:56:49;14.90;1.00
290;DHT22;13193;48.874;9.086;2022-07-01T03:59:15;14.90;1.00
290;DHT22;13193;48.874;9.086;2022-07-01T04:01:41;15.00;1.00
290;DHT22;13193;48.874;9.086;2022-07-01T04:04:06;15.00;1.00
290;DHT22;13193;48.874;9.086;2022-07-01T04:06:32;15.00;1.00
290;DHT22;13193;48.874;9.086;2022-07-01T04:08:58;15.00;1.00
290;DHT22;13193;48.874;9.086;2022-07-01T04:11:23;15.00;1.00
290;DHT22;13193;48.874;9.086;2022-07-01T04:13:49;15.10;1.00
290;DHT22;13193;48.874;9.086;2022-07-01T04:16:18;15.10;1.00
290;DHT22;13193;48.874;9.086;2022-07-01T04:18:48;15.10;1.00
290;DHT22;13193;48.874;9.086;2022-07-01T04:21:13;15.20;1.00
290;DHT22;13193;48.874;9.086;2022-07-01T04:23:58;15.10;1.00
290;DHT22;13193;48.874;9.086;2022-07-01T04:26:24;15.10;1.00
290;DHT22;13193;48.874;9.086;2022-07-01T04:28:51;15.00;1.00
290;DHT22;13193;48.874;9.086;2022-07-01T04:31:17;15.00;1.00
290;DHT22;13193;48.874;9.086;2022-07-01T04:33:44;15.00;1.00
290;DHT22;13193;48.874;9.086;2022-07-01T04:36:10;15.10;1.00
290;DHT22;13193;48.874;9.086;2022-07-01T04:38:36;15.10;1.00
290;DHT22;13193;48.874;9.086;2022-07-01T04:41:02;15.10;1.00
290;DHT22;13193;48.874;9.086;2022-07-01T04:43:46;15.00;1.00
290;DHT22;13193;48.874;9.086;2022-07-01T04:46:12;15.00;1.00
290;DHT22;13193;48.874;9.086;2022-07-01T04:48:38;15.00;1.00
290;DHT22;13193;48.874;9.086;2022-07-01T04:51:03;15.00;1.00
290;DHT22;13193;48.874;9.086;2022-07-01T04:53:32;15.10;1.00
290;DHT22;13193;48.874;9.086;2022-07-01T04:55:57;15.10;1.00
290;DHT22;13193;48.874;9.086;2022-07-01T04:58:23;15.10;1.00
290;DHT22;13193;48.874;9.086;2022-07-01T05:00:49;15.20;1.00
290;DHT22;13193;48.874;9.086;2022-07-01T05:03:19;15.20;1.00
290;DHT22;13193;48.874;9.086;2022-07-01T05:06:05;15.30;1.00
290;DHT22;13193;48.874;9.086;2022-07-01T05:08:44;15.40;1.00
290;DHT22;13193;48.874;9.086;2022-07-01T05:11:09;15.30;1.00
290;DHT22;13193;48.874;9.086;2022-07-01T05:13:37;15.30;1.00
290;DHT22;13193;48.874;9.086;2022-07-01T05:16:04;15.30;1.00
290;DHT22;13193;48.874;9.086;2022-07-01T05:18:30;15.30;1.00
290;DHT22;13193;48.874;9.086;2022-07-01T05:21:14;15.30;1.00
290;DHT22;13193;48.874;9.086;2022-07-01T05:23:58;15.30;1.00
290;DHT22;13193;48.874;9.086;2022-07-01T05:26:24;15.30;1.00
290;DHT22;13193;48.874;9.086;2022-07-01T05:28:52;15.20;1.00
290;DHT22;13193;48.874;9.086;2022-07-01T05:31:20;15.20;1.00
290;DHT22;13193;48.874;9.086;2022-07-01T05:33:52;15.20;1.00
290;DHT22;13193;48.874;9.086;2022-07-01T05:36:18;15.20;1.00
290;DHT22;13193;48.874;9.086;2022-07-01T05:38:44;15.20;1.00
290;DHT22;13193;48.874;9.086;2022-07-01T05:41:10;15.20;1.00
290;DHT22;13193;48.874;9.086;2022-07-01T05:43:35;15.20;1.00
290;DHT22;13193;48.874;9.086;2022-07-01T05:46:01;15.20;1.00
290;DHT22;13193;48.874;9.086;2022-07-01T05:48:27;15.20;1.00
290;DHT22;13193;48.874;9.086;2022-07-01T05:50:53;15.20;1.00
290;DHT22;13193;48.874;9.086;2022-07-01T05:53:19;15.20;1.00
290;DHT22;13193;48.874;9.086;2022-07-01T05:55:46;15.20;1.00
290;DHT22;13193;48.874;9.086;2022-07-01T05:58:12;15.20;1.00
290;DHT22;13193;48.874;9.086;2022-07-01T06:00:41;15.20;1.00
290;DHT22;13193;48.874;9.086;2022-07-01T06:03:13;15.20;1.00
290;DHT22;13193;48.874;9.086;2022-07-01T06:05:39;15.20;1.00
290;DHT22;13193;48.874;9.086;2022-07-01T06:08:07;15.20;1.00
290;DHT22;13193;48.874;9.086;2022-07-01T06:10:34;15.20;1.00
290;DHT22;13193;48.874;9.086;2022-07-01T06:13:01;15.20;1.00
290;DHT22;13193;48.874;9.086;2022-07-01T06:15:27;15.30;1.00
290;DHT22;13193;48.874;9.086;2022-07-01T06:17:53;15.30;1.00
290;DHT22;13193;48.874;9.086;2022-07-01T06:20:20;15.30;1.00
290;DHT22;13193;48.874;9.086;2022-07-01T06:22:47;15.30;1.00
290;DHT22;13193;48.874;9.086;2022-07-01T06:25:14;15.30;1.00
290;DHT22;13193;48.874;9.086;2022-07-01T06:27:42;15.20;1.00
290;DHT22;13193;48.874;9.086;2022-07-01T06:30:09;15.30;1.00
290;DHT22;13193;48.874;9.086;2022-07-01T06:32:35;15.30;1.00
290;DHT22;13193;48.874;9.086;2022-07-01T06:35:01;15.40;1.00
290;DHT22;13193;48.874;9.086;2022-07-01T06:37:28;15.40;1.00
290;DHT22;13193;48.874;9.086;2022-07-01T06:39:56;15.40;1.00
290;DHT22;13193;48.874;9.086;2022-07-01T06:42:23;15.40;1.00
290;DHT22;13193;48.874;9.086;2022-07-01T06:44:48;15.40;1.00
290;DHT22;13193;48.874;9.086;2022-07-01T06:47:14;15.50;1.00
290;DHT22;13193;48.874;9.086;2022-07-01T06:49:40;15.60;1.00
290;DHT22;13193;48.874;9.086;2022-07-01T06:52:06;15.60;1.00
290;DHT22;13193;48.874;9.086;2022-07-01T06:54:32;15.70;1.00
290;DHT22;13193;48.874;9.086;2022-07-01T06:56:57;15.70;1.00
290;DHT22;13193;48.874;9.086;2022-07-01T06:59:23;15.70;1.00
290;DHT22;13193;48.874;9.086;2022-07-01T07:01:48;15.70;1.00
290;DHT22;13193;48.874;9.086;2022-07-01T07:04:16;15.70;1.00
290;DHT22;13193;48.874;9.086;2022-07-01T07:06:42;15.70;1.00
290;DHT22;13193;48.874;9.086;2022-07-01T07:09:11;15.80;1.00
290;DHT22;13193;48.874;9.086;2022-07-01T07:11:37;15.90;1.00
290;DHT22;13193;48.874;9.086;2022-07-01T07:14:04;16.00;1.00
290;DHT22;13193;48.874;9.086;2022-07-01T07:16:33;16.00;1.00
290;DHT22;13193;48.874;9.086;2022-07-01T07:18:58;16.10;1.00
290;DHT22;13193;48.874;9.086;2022-07-01T07:21:26;16.10;1.00
290;DHT22;13193;48.874;9.086;2022-07-01T07:23:53;16.10;1.00
290;DHT22;13193;48.874;9.086;2022-07-01T07:26:20;16.20;1.00
290;DHT22;13193;48.874;9.086;2022-07-01T07:28:47;16.40;1.00
290;DHT22;13193;48.874;9.086;2022-07-01T07:31:18;16.50;1.00
290;DHT22;13193;48.874;9.086;2022-07-01T07:33:52;16.60;1.00
290;DHT22;13193;48.874;9.086;2022-07-01T07:36:24;16.70;1.00
290;DHT22;13193;48.874;9.086;2022-07-01T07:38:51;16.80;1.00
290;DHT22;13193;48.874;9.086;2022-07-01T07:41:18;16.90;1.00
290;DHT22;13193;48.874;9.086;2022-07-01T07:43:47;17.00;1.00
290;DHT22;13193;48.874;9.086;2022-07-01T07:46:14;17.10;1.00
290;DHT22;13193;48.874;9.086;2022-07-01T07:48:51;17.20;1.00
290;DHT22;13193;48.874;9.086;2022-07-01T07:51:18;17.30;1.00
290;DHT22;13193;48.874;9.086;2022-07-01T07:53:49;17.40;1.00
290;DHT22;13193;48.874;9.086;2022-07-01T07:56:15;17.60;1.00
290;DHT22;13193;48.874;9.086;2022-07-01T07:58:42;17.60;1.00
290;DHT22;13193;48.874;9.086;2022-07-01T08:01:09;17.70;1.00
290;DHT22;13193;48.874;9.086;2022-07-01T08:03:41;17.80;1.00
290;DHT22;13193;48.874;9.086;2022-07-01T08:06:25;17.70;1.00
290;DHT22;13193;48.874;9.086;2022-07-01T08:08:51;17.70;1.00
290;DHT22;13193;48.874;9.086;2022-07-01T08:11:26;17.50;1.00
290;DHT22;13193;48.874;9.086;2022-07-01T08:13:52;17.40;1.00
290;DHT22;13193;48.874;9.086;2022-07-01T08:16:20;17.30;1.00
290;DHT22;13193;48.874;9.086;2022-07-01T08:18:45;17.20;1.00
290;DHT22;13193;48.874;9.086;2022-07-01T08:21:12;17.10;1.00
290;DHT22;13193;48.874;9.086;2022-07-01T08:23:38;17.00;1.00
290;DHT22;13193;48.874;9.086;2022-07-01T08:26:04;17.00;1.00
290;DHT22;13193;48.874;9.086;2022-07-01T08:28:30;17.00;1.00
290;DHT22;13193;48.874;9.086;2022-07-01T08:30:56;17.10;1.00
290;DHT22;13193;48.874;9.086;2022-07-01T08:33:22;17.20;1.00
290;DHT22;13193;48.874;9.086;2022-07-01T08:35:48;17.30;1.00
290;DHT22;13193;48.874;9.086;2022-07-01T08:38:20;17.50;1.00
290;DHT22;13193;48.874;9.086;2022-07-01T08:40:47;17.60;1.00
290;DHT22;13193;48.874;9.086;2022-07-01T08:43:13;17.70;1.00
290;DHT22;13193;48.874;9.086;2022-07-01T08:45:40;17.80;1.00
290;DHT22;13193;48.874;9.086;2022-07-01T08:48:07;17.80;1.00
290;DHT22;13193;48.874;9.086;2022-07-01T08:50:39;17.90;1.00
290;DHT22;13193;48.874;9.086;2022-07-01T08:53:06;17.80;1.00
290;DHT22;13193;48.874;9.086;2022-07-01T08:55:34;17.70;1.00
290;DHT22;13193;48.874;9.086;2022-07-01T08:58:21;17.60;1.00
290;DHT22;13193;48.874;9.086;2022-07-01T09:00:47;17.60;1.00
290;DHT22;13193;48.874;9.086;2022-07-01T09:03:12;17.60;1.00
290;DHT22;13193;48.874;9.086;2022-07-01T09:05:38;17.60;1.00
290;DHT22;13193;48.874;9.086;2022-07-01T09:08:06;17.60;1.00
290;DHT22;13193;48.874;9.086;2022-07-01T09:10:34;17.60;1.00
290;DHT22;13193;48.874;9.086;2022-07-01T09:13:08;17.60;1.00
290;DHT22;13193;48.874;9.086;2022-07-01T09:15:35;17.50;1.00
290;DHT22;13193;48.874;9.086;2022-07-01T09:20:48;17.40;1.00
290;DHT22;13193;48.874;9.086;2022-07-01T09:23:16;17.30;1.00
290;DHT22;13193;48.874;9.086;2022-07-01T09:28:12;17.60;1.00
290;DHT22;13193;48.874;9.086;2022-07-01T09:33:19;17.50;1.00
290;DHT22;13193;48.874;9.086;2022-07-01T09:35:47;17.60;1.00
290;DHT22;13193;48.874;9.086;2022-07-01T09:38:20;17.50;1.00
290;DHT22;13193;48.874;9.086;2022-07-01T09:41:05;17.50;1.00
290;DHT22;13193;48.874;9.086;2022-07-01T09:43:37;17.60;1.00
290;DHT22;13193;48.874;9.086;2022-07-01T09:46:12;17.60;1.00
290;DHT22;13193;48.874;9.086;2022-07-01T09:51:05;17.90;1.00
290;DHT22;13193;48.874;9.086;2022-07-01T09:53:31;18.10;1.00
290;DHT22;13193;48.874;9.086;2022-07-01T09:55:58;18.40;1.00
290;DHT22;13193;48.874;9.086;2022-07-01T09:58:24;18.50;1.00
290;DHT22;13193;48.874;9.086;2022-07-01T10:00:52;18.70;1.00
290;DHT22;13193;48.874;9.086;2022-07-01T10:03:19;18.80;1.00
290;DHT22;13193;48.874;9.086;2022-07-01T10:11:58;19.20;1.00
290;DHT22;13193;48.874;9.086;2022-07-01T10:14:28;19.40;1.00
290;DHT22;13193;48.874;9.086;2022-07-01T10:16:54;19.70;1.00
290;DHT22;13193;48.874;9.086;2022-07-01T10:21:46;20.30;1.00
290;DHT22;13193;48.874;9.086;2022-07-01T10:24:18;20.80;1.00
290;DHT22;13193;48.874;9.086;2022-07-01T10:26:45;21.30;1.00
290;DHT22;13193;48.874;9.086;2022-07-01T10:29:31;21.60;1.00
290;DHT22;13193;48.874;9.086;2022-07-01T10:32:26;21.70;1.00
290;DHT22;13193;48.874;9.086;2022-07-01T10:35:04;21.80;1.00
290;DHT22;13193;48.874;9.086;2022-07-01T10:37:30;21.90;1.00
290;DHT22;13193;48.874;9.086;2022-07-01T10:39:59;22.00;1.00
290;DHT22;13193;48.874;9.086;2022-07-01T10:42:57;22.20;1.00
290;DHT22;13193;48.874;9.086;2022-07-01T10:45:24;22.50;1.00
290;DHT22;13193;48.874;9.086;2022-07-01T10:48:23;22.80;1.00
290;DHT22;13193;48.874;9.086;2022-07-01T10:50:49;23.00;1.00
290;DHT22;13193;48.874;9.086;2022-07-01T10:53:16;23.20;1.00
290;DHT22;13193;48.874;9.086;2022-07-01T10:55:47;23.30;1.00
290;DHT22;13193;48.874;9.086;2022-07-01T10:58:14;23.40;1.00
290;DHT22;13193;48.874;9.086;2022-07-01T11:00:45;23.50;1.00
290;DHT22;13193;48.874;9.086;2022-07-01T11:03:20;23.60;1.00
290;DHT22;13193;48.874;9.086;2022-07-01T11:05:48;23.80;1.00
290;DHT22;13193;48.874;9.086;2022-07-01T11:08:14;23.90;1.00
290;DHT22;13193;48.874;9.086;2022-07-01T11:10:41;24.10;1.00
290;DHT22;13193;48.874;9.086;2022-07-01T11:13:07;24.30;1.00
290;DHT22;13193;48.874;9.086;2022-07-01T11:15:33;24.60;1.00
290;DHT22;13193;48.874;9.086;2022-07-01T11:17:59;24.70;1.00
290;DHT22;13193;48.874;9.086;2022-07-01T11:20:26;24.90;1.00
290;DHT22;13193;48.874;9.086;2022-07-01T11:22:52;25.00;1.00
290;DHT22;13193;48.874;9.086;2022-07-01T11:25:19;25.00;1.00
290;DHT22;13193;48.874;9.086;2022-07-01T11:27:47;24.50;1.00
290;DHT22;13193;48.874;9.086;2022-07-01T11:30:13;24.20;1.00
290;DHT22;13193;48.874;9.086;2022-07-01T11:32:42;24.10;1.00
290;DHT22;13193;48.874;9.086;2022-07-01T11:35:12;24.00;1.00
290;DHT22;13193;48.874;9.086;2022-07-01T11:38:23;23.90;1.00
290;DHT22;13193;48.874;9.086;2022-07-01T11:41:27;23.80;1.00
290;DHT22;13193;48.874;9.086;2022-07-01T11:43:52;23.60;1.00
290;DHT22;13193;48.874;9.086;2022-07-01T11:46:18;23.40;1.00
290;DHT22;13193;48.874;9.086;2022-07-01T11:48:47;23.20;1.00
290;DHT22;13193;48.874;9.086;2022-07-01T11:51:23;23.10;1.00
290;DHT22;13193;48.874;9.086;2022-07-01T11:53:52;23.10;1.00
290;DHT22;13193;48.874;9.086;2022-07-01T11:56:36;23.10;1.00
290;DHT22;13193;48.874;9.086;2022-07-01T11:59:06;23.20;1.00
290;DHT22;13193;48.874;9.086;2022-07-01T12:01:36;23.30;1.00
290;DHT22;13193;48.874;9.086;2022-07-01T12:04:05;23.40;1.00
290;DHT22;13193;48.874;9.086;2022-07-01T12:06:32;23.30;1.00
290;DHT22;13193;48.874;9.086;2022-07-01T12:08:58;23.20;1.00
290;DHT22;13193;48.874;9.086;2022-07-01T12:11:26;22.90;1.00
290;DHT22;13193;48.874;9.086;2022-07-01T12:13:52;22.70;1.00
290;DHT22;13193;48.874;9.086;2022-07-01T12:16:19;22.80;1.00
290;DHT22;13193;48.874;9.086;2022-07-01T12:19:00;23.00;1.00
290;DHT22;13193;48.874;9.086;2022-07-01T12:21:30;23.20;1.00
290;DHT22;13193;48.874;9.086;2022-07-01T12:24:13;23.40;1.00
290;DHT22;13193;48.874;9.086;2022-07-01T12:29:26;23.70;1.00
290;DHT22;13193;48.874;9.086;2022-07-01T12:32:03;23.80;1.00
290;DHT22;13193;48.874;9.086;2022-07-01T12:34:47;23.90;1.00
290;DHT22;13193;48.874;9.086;2022-07-01T12:39:51;23.80;1.00
290;DHT22;13193;48.874;9.086;2022-07-01T12:42:34;23.90;1.00
290;DHT22;13193;48.874;9.086;2022-07-01T12:45:04;24.00;1.00
290;DHT22;13193;48.874;9.086;2022-07-01T12:47:44;24.20;1.00
290;DHT22;13193;48.874;9.086;2022-07-01T12:52:39;24.70;1.00
290;DHT22;13193;48.874;9.086;2022-07-01T12:55:20;24.90;1.00
290;DHT22;13193;48.874;9.086;2022-07-01T12:57:51;25.20;1.00
290;DHT22;13193;48.874;9.086;2022-07-01T13:00:18;25.50;1.00
290;DHT22;13193;48.874;9.086;2022-07-01T13:02:43;25.70;1.00
290;DHT22;13193;48.874;9.086;2022-07-01T13:05:10;26.00;1.00
290;DHT22;13193;48.874;9.086;2022-07-01T13:07:36;26.20;1.00
290;DHT22;13193;48.874;9.086;2022-07-01T13:10:02;26.40;1.00
290;DHT22;13193;48.874;9.086;2022-07-01T13:12:28;26.60;1.00
290;DHT22;13193;48.874;9.086;2022-07-01T13:14:54;26.80;1.00
290;DHT22;13193;48.874;9.086;2022-07-01T13:17:20;26.80;1.00
290;DHT22;13193;48.874;9.086;2022-07-01T13:19:47;27.00;1.00
290;DHT22;13193;48.874;9.086;2022-07-01T13:22:14;27.10;1.00
290;DHT22;13193;48.874;9.086;2022-07-01T13:24:39;27.10;1.00
290;DHT22;13193;48.874;9.086;2022-07-01T13:27:05;27.00;1.00
290;DHT22;13193;48.874;9.086;2022-07-01T13:29:31;26.80;1.00
290;DHT22;13193;48.874;9.086;2022-07-01T13:31:57;26.40;1.00
290;DHT22;13193;48.874;9.086;2022-07-01T13:34:22;26.10;1.00
290;DHT22;13193;48.874;9.086;2022-07-01T13:36:48;25.70;1.00
290;DHT22;13193;48.874;9.086;2022-07-01T13:39:14;25.50;1.00
290;DHT22;13193;48.874;9.086;2022-07-01T13:41:39;25.30;1.00
290;DHT22;13193;48.874;9.086;2022-07-01T13:44:05;25.10;1.00
290;DHT22;13193;48.874;9.086;2022-07-01T13:46:31;25.00;1.00
290;DHT22;13193;48.874;9.086;2022-07-01T13:48:57;24.80;1.00
290;DHT22;13193;48.874;9.086;2022-07-01T13:51:23;24.80;1.00
290;DHT22;13193;48.874;9.086;2022-07-01T13:53:49;24.70;1.00
290;DHT22;13193;48.874;9.086;2022-07-01T13:56:14;24.70;1.00
290;DHT22;13193;48.874;9.086;2022-07-01T13:58:40;24.50;1.00
290;DHT22;13193;48.874;9.086;2022-07-01T14:01:05;24.40;1.00
290;DHT22;13193;48.874;9.086;2022-07-01T14:03:31;24.40;1.00
290;DHT22;13193;48.874;9.086;2022-07-01T14:05:57;24.60;1.00
290;DHT22;13193;48.874;9.086;2022-07-01T14:08:22;24.50;1.00
290;DHT22;13193;48.874;9.086;2022-07-01T14:10:49;24.40;1.00
290;DHT22;13193;48.874;9.086;2022-07-01T14:13:15;24.40;1.00
290;DHT22;13193;48.874;9.086;2022-07-01T14:15:42;24.60;1.00
290;DHT22;13193;48.874;9.086;2022-07-01T14:18:07;24.80;1.00
290;DHT22;13193;48.874;9.086;2022-07-01T14:20:34;25.00;1.00
290;DHT22;13193;48.874;9.086;2022-07-01T14:22:59;25.30;1.00
290;DHT22;13193;48.874;9.086;2022-07-01T14:25:25;25.50;1.00
290;DHT22;13193;48.874;9.086;2022-07-01T14:27:50;25.70;1.00
290;DHT22;13193;48.874;9.086;2022-07-01T14:30:16;25.70;1.00
290;DHT22;13193;48.874;9.086;2022-07-01T14:32:42;25.50;1.00
290;DHT22;13193;48.874;9.086;2022-07-01T14:35:08;25.30;1.00
290;DHT22;13193;48.874;9.086;2022-07-01T14:37:34;25.20;1.00
290;DHT22;13193;48.874;9.086;2022-07-01T14:40:03;25.20;1.00
290;DHT22;13193;48.874;9.086;2022-07-01T14:42:29;25.20;1.00
290;DHT22;13193;48.874;9.086;2022-07-01T14:44:55;25.10;1.00
290;DHT22;13193;48.874;9.086;2022-07-01T14:47:21;25.00;1.00
290;DHT22;13193;48.874;9.086;2022-07-01T14:49:48;24.90;1.00
290;DHT22;13193;48.874;9.086;2022-07-01T14:52:15;24.80;1.00
290;DHT22;13193;48.874;9.086;2022-07-01T14:54:43;24.70;1.00
290;DHT22;13193;48.874;9.086;2022-07-01T14:57:09;24.70;1.00
290;DHT22;13193;48.874;9.086;2022-07-01T14:59:34;24.70;1.00
290;DHT22;13193;48.874;9.086;2022-07-01T15:02:02;24.70;1.00
290;DHT22;13193;48.874;9.086;2022-07-01T15:04:30;24.70;1.00
290;DHT22;13193;48.874;9.086;2022-07-01T15:06:56;24.60;1.00
290;DHT22;13193;48.874;9.086;2022-07-01T15:09:21;24.50;1.00
290;DHT22;13193;48.874;9.086;2022-07-01T15:11:50;24.30;1.00
290;DHT22;13193;48.874;9.086;2022-07-01T15:14:17;24.00;1.00
290;DHT22;13193;48.874;9.086;2022-07-01T15:16:43;23.70;1.00
290;DHT22;13193;48.874;9.086;2022-07-01T15:19:10;23.70;1.00
290;DHT22;13193;48.874;9.086;2022-07-01T15:21:35;23.70;1.00
290;DHT22;13193;48.874;9.086;2022-07-01T15:24:01;23.90;1.00
290;DHT22;13193;48.874;9.086;2022-07-01T15:26:27;24.10;1.00
290;DHT22;13193;48.874;9.086;2022-07-01T15:28:52;24.20;1.00
290;DHT22;13193;48.874;9.086;2022-07-01T15:31:18;24.20;1.00
290;DHT22;13193;48.874;9.086;2022-07-01T15:33:44;24.00;1.00
290;DHT22;13193;48.874;9.086;2022-07-01T15:36:10;23.90;1.00
290;DHT22;13193;48.874;9.086;2022-07-01T15:38:36;23.70;1.00
290;DHT22;13193;48.874;9.086;2022-07-01T15:41:02;23.60;1.00
290;DHT22;13193;48.874;9.086;2022-07-01T15:43:28;23.40;1.00
290;DHT22;13193;48.874;9.086;2022-07-01T15:45:57;23.20;1.00
290;DHT22;13193;48.874;9.086;2022-07-01T15:48:23;23.00;1.00
290;DHT22;13193;48.874;9.086;2022-07-01T15:50:48;22.90;1.00
290;DHT22;13193;48.874;9.086;2022-07-01T15:53:16;22.70;1.00
290;DHT22;13193;48.874;9.086;2022-07-01T15:55:41;22.60;1.00
290;DHT22;13193;48.874;9.086;2022-07-01T15:58:12;22.50;1.00
290;DHT22;13193;48.874;9.086;2022-07-01T16:00:42;22.50;1.00
290;DHT22;13193;48.874;9.086;2022-07-01T16:03:09;22.40;1.00
290;DHT22;13193;48.874;9.086;2022-07-01T16:05:35;22.30;1.00
290;DHT22;13193;48.874;9.086;2022-07-01T16:08:04;22.30;1.00
290;DHT22;13193;48.874;9.086;2022-07-01T16:10:41;22.30;1.00
290;DHT22;13193;48.874;9.086;2022-07-01T16:13:11;22.40;1.00
290;DHT22;13193;48.874;9.086;2022-07-01T16:15:37;22.40;1.00
290;DHT22;13193;48.874;9.086;2022-07-01T16:18:07;22.50;1.00
290;DHT22;13193;48.874;9.086;2022-07-01T16:20:41;22.50;1.00
290;DHT22;13193;48.874;9.086;2022-07-01T16:23:09;22.40;1.00
290;DHT22;13193;48.874;9.086;2022-07-01T16:25:38;22.40;1.00
290;DHT22;13193;48.874;9.086;2022-07-01T16:28:04;22.30;1.00
290;DHT22;13193;48.874;9.086;2022-07-01T16:30:32;22.20;1.00
290;DHT22;13193;48.874;9.086;2022-07-01T16:32:58;22.10;1.00
290;DHT22;13193;48.874;9.086;2022-07-01T16:35:31;22.10;1.00
290;DHT22;13193;48.874;9.086;2022-07-01T16:38:02;22.30;1.00
290;DHT22;13193;48.874;9.086;2022-07-01T16:40:29;22.50;1.00
290;DHT22;13193;48.874;9.086;2022-07-01T16:42:56;22.60;1.00
290;DHT22;13193;48.874;9.086;2022-07-01T16:45:39;22.70;1.00
290;DHT22;13193;48.874;9.086;2022-07-01T16:48:08;22.70;1.00